Dennis Ross — WDB7118 — position and weather

sailwx.info

Track history (hours):
 
Tides and Currents Weather Stations Pressure Air Temp Water Temp Dewpoint Dewpoint Depression Visibility Wind Speed Wind Dir Waves Ship Positions

Dennis Ross

Owner: Magnolia Marine Transport Co, Vicksburg, MS. More information available from US FCC via Universal Licensing System and Coast Guard Vessel Documentation Center.

Last reported at 2017-Oct-14 19:39 UTC. Time now 2017-Nov-20 13:41 UTC.
Position N 32°38' W 091°09'.
Warning: this ship's position is 36 days out of date.

Length 62 m; draft 2.8 m.

Type: Towing. MMSI: 366936680.

Date/timePositionNaut miles runAvg speedWind from/ knotsBaromVisibWave heightAir tempDewpointWater temp
2017-Oct-14 19:39N 32°38' W 091°09'1 5.2
2017-Oct-14 19:30N 32°37' W 091°09'2 3.9
2017-Oct-14 19:00N 32°36' W 091°08'3 5.9
2017-Oct-14 18:30N 32°34' W 091°06'3 6.5
2017-Oct-14 18:00N 32°30' W 091°07'3 6.0
2017-Oct-14 17:30N 32°28' W 091°06'3 5.5
2017-Oct-14 17:00N 32°26' W 091°03'3 5.3
2017-Oct-14 16:30N 32°25' W 090°60'2 4.9
2017-Oct-14 16:00N 32°23' W 090°60'2 4.4
2017-Oct-14 15:30N 32°21' W 090°58'3 6.0
2017-Oct-14 15:00N 32°21' W 090°55'1 2.2
2017-Oct-14 14:30N 32°21' W 090°54'0 0.0
2017-Oct-14 14:00N 32°21' W 090°54'0 0.0
2017-Oct-14 13:30N 32°21' W 090°54'0 0.0
2017-Oct-14 13:00N 32°21' W 090°54'0 0.0
2017-Oct-14 12:30N 32°21' W 090°54'0 0.0
2017-Oct-14 12:00N 32°21' W 090°54'2 4.5
2017-Oct-14 11:30N 32°23' W 090°52'0 0.8
2017-Oct-14 11:00N 32°23' W 090°53'0 0.1
2017-Oct-14 10:30N 32°23' W 090°53'1 2.0
2017-Oct-14 10:00N 32°23' W 090°54'0 0.9
2017-Oct-14 09:30N 32°23' W 090°53'1 1.8
2017-Oct-14 09:00N 32°23' W 090°53'0 0.7
2017-Oct-14 08:30N 32°22' W 090°53'1 2.3
2017-Oct-14 08:00N 32°21' W 090°53'1 2.2
2017-Oct-14 07:30N 32°20' W 090°54'2 4.2
2017-Oct-14 07:00N 32°18' W 090°55'2 3.3
2017-Oct-14 06:30N 32°17' W 090°56'0 0.6
2017-Oct-14 06:00N 32°17' W 090°56'1 2.7
2017-Oct-14 05:30N 32°16' W 090°58'2 3.3
2017-Oct-14 05:00N 32°15' W 090°59'2 4.2
2017-Oct-14 04:30N 32°13' W 090°59'1 2.4
2017-Oct-14 04:00N 32°12' W 090°59'2 3.8
2017-Oct-14 03:30N 32°10' W 091°00'2 4.0
2017-Oct-14 03:00N 32°08' W 091°01'2 4.0
2017-Oct-14 02:30N 32°07' W 091°03'3 3.2
2017-Oct-14 01:39N 32°08' W 091°06'1 4.4
2017-Oct-14 01:30N 32°08' W 091°06'7 3.3
2017-Oct-13 23:31N 32°01' W 091°04'0 6.0
2017-Oct-13 23:30N 32°01' W 091°04'19 0.6
2017-Oct-12 16:36N 31°49' W 091°21'111.1
2017-Oct-12 16:28N 31°50' W 091°21'5 9.7
2017-Oct-12 15:59N 31°51' W 091°15'510.2
2017-Oct-12 15:30N 31°55' W 091°12'4 8.9
2017-Oct-12 15:00N 31°59' W 091°09'5 9.6
2017-Oct-12 14:30N 32°02' W 091°04'5 9.4
2017-Oct-12 13:59N 32°06' W 091°06'3 5.8
2017-Oct-12 13:30N 32°07' W 091°03'4 8.9
2017-Oct-12 13:00N 32°11' W 090°60'510.6
2017-Oct-12 12:30N 32°16' W 090°58'510.1
2017-Oct-12 12:00N 32°20' W 090°54'1 1.9
2017-Oct-12 11:30N 32°21' W 090°54'0 0.0
2017-Oct-12 11:00N 32°21' W 090°54'2 3.8
2017-Oct-12 10:30N 32°22' W 090°53'1 2.4
2017-Oct-12 10:00N 32°23' W 090°55'0 0.0
2017-Oct-12 09:30N 32°23' W 090°55'0 0.1
2017-Oct-12 09:00N 32°23' W 090°55'0 0.0
2017-Oct-12 08:30N 32°23' W 090°55'0 0.0
2017-Oct-12 08:00N 32°23' W 090°55'0 0.0
2017-Oct-12 07:30N 32°23' W 090°55'0 0.0
2017-Oct-12 07:00N 32°23' W 090°55'0 0.0
2017-Oct-12 06:30N 32°23' W 090°55'2 3.8
2017-Oct-12 06:00N 32°22' W 090°53'1 3.0
2017-Oct-12 05:30N 32°23' W 090°54'0 0.0
2017-Oct-12 05:00N 32°23' W 090°54'0 0.0
2017-Oct-12 04:30N 32°23' W 090°54'0 0.0
2017-Oct-12 04:00N 32°23' W 090°54'0 0.0
2017-Oct-12 03:30N 32°23' W 090°54'0 0.0
2017-Oct-12 03:00N 32°23' W 090°54'0 0.0
2017-Oct-12 02:30N 32°23' W 090°54'0 0.0
2017-Oct-12 02:00N 32°23' W 090°54'0 0.0
2017-Oct-12 01:30N 32°23' W 090°54'0 0.3
2017-Oct-12 01:00N 32°23' W 090°54'0 0.3
2017-Oct-12 00:30N 32°23' W 090°54'0 0.0
2017-Oct-12 00:00N 32°23' W 090°54'0 0.0
2017-Oct-11 23:30N 32°23' W 090°54'0 0.0
2017-Oct-11 23:00N 32°23' W 090°54'0 0.0
2017-Oct-11 22:30N 32°23' W 090°54'0 0.0
2017-Oct-11 22:00N 32°23' W 090°54'0 0.0
2017-Oct-11 21:30N 32°23' W 090°54'0 0.0
2017-Oct-11 21:00N 32°23' W 090°54'0 0.0
2017-Oct-11 20:30N 32°23' W 090°54'0 0.0
2017-Oct-11 20:00N 32°23' W 090°54'0 0.0
2017-Oct-11 19:30N 32°23' W 090°54'0 0.0
2017-Oct-11 19:00N 32°23' W 090°54'0 0.0
2017-Oct-11 18:30N 32°23' W 090°54'0 0.0
2017-Oct-11 18:00N 32°23' W 090°54'0 0.0
2017-Oct-11 17:30N 32°23' W 090°54'0 0.0
2017-Oct-11 17:00N 32°23' W 090°54'  
2017-Oct-09 02:33N 31°56' W 091°12'0 8.5
2017-Oct-09 02:30N 31°57' W 091°12'5 7.6
2017-Oct-09 01:52N 31°59' W 091°07'3 8.5
2017-Oct-09 01:30N 32°01' W 091°04'5 7.0
2017-Oct-09 00:45N 32°06' W 091°06'2 6.6
2017-Oct-09 00:30N 32°08' W 091°06'4 8.5
2017-Oct-09 00:00N 32°07' W 091°01'5 9.1
2017-Oct-08 23:30N 32°12' W 090°59'5 9.1
2017-Oct-08 23:00N 32°16' W 090°58'5 9.0
2017-Oct-08 22:30N 32°19' W 090°54'2 4.2
2017-Oct-08 22:00N 32°21' W 090°53'0 0.8
2017-Oct-08 21:30N 32°22' W 090°53'0 0.0
2017-Oct-08 21:00N 32°22' W 090°53'0 0.0
2017-Oct-08 20:30N 32°22' W 090°53'0 0.7
2017-Oct-08 20:00N 32°22' W 090°53'2 3.1
2017-Oct-08 19:30N 32°23' W 090°54'0 0.7
2017-Oct-08 19:00N 32°23' W 090°54'0 0.0
2017-Oct-08 18:30N 32°23' W 090°54'0 0.2
2017-Oct-08 18:00N 32°23' W 090°54'0 0.0
2017-Oct-08 17:30N 32°23' W 090°54'0 0.0
2017-Oct-08 17:00N 32°23' W 090°54'0 0.0
2017-Oct-08 16:30N 32°23' W 090°54'0 0.0
2017-Oct-08 16:00N 32°23' W 090°54'0 0.0
2017-Oct-08 15:30N 32°23' W 090°54'0 0.0
2017-Oct-08 15:00N 32°23' W 090°54'0 0.0
2017-Oct-08 14:30N 32°23' W 090°54'0 0.0
2017-Oct-08 14:00N 32°23' W 090°54'0 0.0
2017-Oct-08 13:30N 32°23' W 090°54'0 0.0
2017-Oct-08 13:00N 32°23' W 090°54'0 0.0
2017-Oct-08 12:30N 32°23' W 090°54'0 0.0
2017-Oct-08 12:00N 32°23' W 090°54'0 0.0
2017-Oct-08 11:30N 32°23' W 090°54'0 0.0
2017-Oct-08 11:00N 32°23' W 090°54'0 0.0
2017-Oct-08 10:30N 32°23' W 090°54'0 0.0
2017-Oct-08 10:00N 32°23' W 090°54'0 0.0
2017-Oct-08 09:30N 32°23' W 090°54'0 0.0
2017-Oct-08 09:00N 32°23' W 090°54'0 0.0
2017-Oct-08 08:30N 32°23' W 090°54'0 0.0
2017-Oct-08 08:00N 32°23' W 090°54'0 0.0
2017-Oct-08 07:30N 32°23' W 090°54'0 0.0
2017-Oct-08 07:00N 32°23' W 090°54'0 0.0
2017-Oct-08 06:30N 32°23' W 090°54'0 0.0
2017-Oct-08 06:00N 32°23' W 090°54'0 0.0
2017-Oct-08 05:30N 32°23' W 090°54'0 0.0
2017-Oct-08 05:00N 32°23' W 090°54'0 0.0
2017-Oct-08 04:30N 32°23' W 090°54'0 0.0
2017-Oct-08 04:00N 32°23' W 090°54'0 0.0
2017-Oct-08 03:30N 32°23' W 090°54'0 0.1
2017-Oct-08 03:00N 32°23' W 090°54'0 0.9
2017-Oct-08 02:30N 32°23' W 090°53'1 2.6
2017-Oct-08 02:00N 32°22' W 090°53'1 2.8
2017-Oct-08 01:30N 32°21' W 090°53'1 1.1
2017-Oct-08 01:00N 32°20' W 090°54'0 0.6
2017-Oct-08 00:30N 32°20' W 090°54'2 4.4
2017-Oct-08 00:00N 32°18' W 090°55'2 3.5
2017-Oct-07 23:30N 32°17' W 090°57'2 4.0
2017-Oct-07 23:00N 32°16' W 090°58'2 4.0
2017-Oct-07 22:30N 32°14' W 090°59'2 4.8
2017-Oct-07 22:00N 32°11' W 090°60'2 4.3
2017-Oct-07 21:30N 32°09' W 091°00'2 4.3
2017-Oct-07 21:00N 32°07' W 091°01'4 4.7
2017-Oct-07 20:06N 32°08' W 091°06'1 4.2
2017-Oct-07 19:59N 32°07' W 091°07'23 0.7
2017-Oct-06 10:22N 31°49' W 091°21'4 7.7
2017-Oct-06 09:53N 31°51' W 091°18'3 8.7
2017-Oct-06 09:30N 31°52' W 091°14'4 7.7
2017-Oct-06 08:56N 31°56' W 091°12'3 7.1
2017-Oct-06 08:30N 31°59' W 091°10'4 8.1
2017-Oct-06 08:00N 31°60' W 091°06'5 9.4
2017-Oct-06 07:30N 32°04' W 091°03'4 8.8
2017-Oct-06 07:00N 32°07' W 091°07'2 4.5
2017-Oct-06 06:30N 32°08' W 091°04'3 6.0
2017-Oct-06 06:00N 32°08' W 091°01'4 8.7
2017-Oct-06 05:30N 32°12' W 090°59'4 8.6
2017-Oct-06 05:00N 32°16' W 090°58'4 8.8
2017-Oct-06 04:30N 32°19' W 090°54'3 5.1
2017-Oct-06 04:00N 32°22' W 090°53'0 0.0
2017-Oct-06 03:30N 32°22' W 090°53'1 1.6
2017-Oct-06 03:00N 32°21' W 090°53'1 1.2
2017-Oct-06 02:30N 32°20' W 090°54'0 0.0
2017-Oct-06 02:00N 32°20' W 090°54'0 0.0
2017-Oct-06 01:30N 32°20' W 090°54'0 0.0
2017-Oct-06 01:00N 32°20' W 090°54'0 0.0
2017-Oct-06 00:30N 32°20' W 090°54'0 0.0
2017-Oct-06 00:00N 32°20' W 090°54'0 0.0
2017-Oct-05 23:30N 32°20' W 090°54'1 2.7
2017-Oct-05 23:00N 32°22' W 090°53'0 0.1
2017-Oct-05 22:30N 32°22' W 090°53'1 2.9
2017-Oct-05 22:00N 32°23' W 090°53'0 0.1
2017-Oct-05 21:30N 32°23' W 090°53'0 0.0
2017-Oct-05 21:00N 32°23' W 090°53'0 0.0
2017-Oct-05 20:30N 32°23' W 090°53'0 0.0
2017-Oct-05 20:00N 32°23' W 090°53'0 0.0
2017-Oct-05 19:30N 32°23' W 090°53'0 0.0
2017-Oct-05 19:00N 32°23' W 090°53'0 0.3
2017-Oct-05 18:30N 32°23' W 090°53'1 1.6
2017-Oct-05 18:00N 32°23' W 090°54'0 0.1
2017-Oct-05 17:30N 32°23' W 090°54'0 0.0
2017-Oct-05 17:00N 32°23' W 090°54'3 1.9
2017-Oct-05 15:30N 32°20' W 090°54'1 2.4
2017-Oct-05 15:00N 32°19' W 090°54'3 5.5
2017-Oct-05 14:30N 32°17' W 090°56'2 4.5
2017-Oct-05 14:00N 32°16' W 090°58'2 3.9
2017-Oct-05 13:30N 32°14' W 090°59'1 1.7
2017-Oct-05 13:00N 32°13' W 090°59'1 1.4
2017-Oct-05 12:30N 32°12' W 090°59'2 4.2
2017-Oct-05 12:00N 32°10' W 091°00'2 3.9
2017-Oct-05 11:30N 32°08' W 091°00'2 3.7
2017-Oct-05 10:53N 32°07' W 091°03'3 4.4
2017-Oct-05 10:12N 32°08' W 091°06'1 4.0
2017-Oct-05 10:00N 32°07' W 091°07'5 1.2
2017-Oct-05 06:02N 32°03' W 091°03'0 4.7
2017-Oct-05 06:00N 32°03' W 091°03'3 5.6
2017-Oct-05 05:30N 32°01' W 091°05'  
Track history (hours):
 
Tides and Currents Weather Stations Pressure Air Temp Water Temp Dewpoint Dewpoint Depression Visibility Wind Speed Wind Dir Waves Ship Positions

Dennis Ross

Owner: Magnolia Marine Transport Co, Vicksburg, MS. More information available from US FCC via Universal Licensing System and Coast Guard Vessel Documentation Center.

Last reported at 2017-Oct-14 19:39 UTC. Time now 2017-Nov-20 13:41 UTC.
Position N 32°38' W 091°09'.
Warning: this ship's position is 36 days out of date.

Length 62 m; draft 2.8 m.

Type: Towing. MMSI: 366936680.

Date/timePositionNaut miles runAvg speedWind from/ knotsBaromVisibWave heightAir tempDewpointWater temp
2017-Oct-14 19:39N 32°38' W 091°09'1 5.2
2017-Oct-14 19:30N 32°37' W 091°09'2 3.9
2017-Oct-14 19:00N 32°36' W 091°08'3 5.9
2017-Oct-14 18:30N 32°34' W 091°06'3 6.5
2017-Oct-14 18:00N 32°30' W 091°07'3 6.0
2017-Oct-14 17:30N 32°28' W 091°06'3 5.5
2017-Oct-14 17:00N 32°26' W 091°03'3 5.3
2017-Oct-14 16:30N 32°25' W 090°60'2 4.9
2017-Oct-14 16:00N 32°23' W 090°60'2 4.4
2017-Oct-14 15:30N 32°21' W 090°58'3 6.0
2017-Oct-14 15:00N 32°21' W 090°55'1 2.2
2017-Oct-14 14:30N 32°21' W 090°54'0 0.0
2017-Oct-14 14:00N 32°21' W 090°54'0 0.0
2017-Oct-14 13:30N 32°21' W 090°54'0 0.0
2017-Oct-14 13:00N 32°21' W 090°54'0 0.0
2017-Oct-14 12:30N 32°21' W 090°54'0 0.0
2017-Oct-14 12:00N 32°21' W 090°54'2 4.5
2017-Oct-14 11:30N 32°23' W 090°52'0 0.8
2017-Oct-14 11:00N 32°23' W 090°53'0 0.1
2017-Oct-14 10:30N 32°23' W 090°53'1 2.0
2017-Oct-14 10:00N 32°23' W 090°54'0 0.9
2017-Oct-14 09:30N 32°23' W 090°53'1 1.8
2017-Oct-14 09:00N 32°23' W 090°53'0 0.7
2017-Oct-14 08:30N 32°22' W 090°53'1 2.3
2017-Oct-14 08:00N 32°21' W 090°53'1 2.2
2017-Oct-14 07:30N 32°20' W 090°54'2 4.2
2017-Oct-14 07:00N 32°18' W 090°55'2 3.3
2017-Oct-14 06:30N 32°17' W 090°56'0 0.6
2017-Oct-14 06:00N 32°17' W 090°56'1 2.7
2017-Oct-14 05:30N 32°16' W 090°58'2 3.3
2017-Oct-14 05:00N 32°15' W 090°59'2 4.2
2017-Oct-14 04:30N 32°13' W 090°59'1 2.4
2017-Oct-14 04:00N 32°12' W 090°59'2 3.8
2017-Oct-14 03:30N 32°10' W 091°00'2 4.0
2017-Oct-14 03:00N 32°08' W 091°01'2 4.0
2017-Oct-14 02:30N 32°07' W 091°03'3 3.2
2017-Oct-14 01:39N 32°08' W 091°06'1 4.4
2017-Oct-14 01:30N 32°08' W 091°06'7 3.3
2017-Oct-13 23:31N 32°01' W 091°04'0 6.0
2017-Oct-13 23:30N 32°01' W 091°04'19 0.6
2017-Oct-12 16:36N 31°49' W 091°21'111.1
2017-Oct-12 16:28N 31°50' W 091°21'5 9.7
2017-Oct-12 15:59N 31°51' W 091°15'510.2
2017-Oct-12 15:30N 31°55' W 091°12'4 8.9
2017-Oct-12 15:00N 31°59' W 091°09'5 9.6
2017-Oct-12 14:30N 32°02' W 091°04'5 9.4
2017-Oct-12 13:59N 32°06' W 091°06'3 5.8
2017-Oct-12 13:30N 32°07' W 091°03'4 8.9
2017-Oct-12 13:00N 32°11' W 090°60'510.6
2017-Oct-12 12:30N 32°16' W 090°58'510.1
2017-Oct-12 12:00N 32°20' W 090°54'1 1.9
2017-Oct-12 11:30N 32°21' W 090°54'0 0.0
2017-Oct-12 11:00N 32°21' W 090°54'2 3.8
2017-Oct-12 10:30N 32°22' W 090°53'1 2.4
2017-Oct-12 10:00N 32°23' W 090°55'0 0.0
2017-Oct-12 09:30N 32°23' W 090°55'0 0.1
2017-Oct-12 09:00N 32°23' W 090°55'0 0.0
2017-Oct-12 08:30N 32°23' W 090°55'0 0.0
2017-Oct-12 08:00N 32°23' W 090°55'0 0.0
2017-Oct-12 07:30N 32°23' W 090°55'0 0.0
2017-Oct-12 07:00N 32°23' W 090°55'0 0.0
2017-Oct-12 06:30N 32°23' W 090°55'2 3.8
2017-Oct-12 06:00N 32°22' W 090°53'1 3.0
2017-Oct-12 05:30N 32°23' W 090°54'0 0.0
2017-Oct-12 05:00N 32°23' W 090°54'0 0.0
2017-Oct-12 04:30N 32°23' W 090°54'0 0.0
2017-Oct-12 04:00N 32°23' W 090°54'0 0.0
2017-Oct-12 03:30N 32°23' W 090°54'0 0.0
2017-Oct-12 03:00N 32°23' W 090°54'0 0.0
2017-Oct-12 02:30N 32°23' W 090°54'0 0.0
2017-Oct-12 02:00N 32°23' W 090°54'0 0.0
2017-Oct-12 01:30N 32°23' W 090°54'0 0.3
2017-Oct-12 01:00N 32°23' W 090°54'0 0.3
2017-Oct-12 00:30N 32°23' W 090°54'0 0.0
2017-Oct-12 00:00N 32°23' W 090°54'0 0.0
2017-Oct-11 23:30N 32°23' W 090°54'0 0.0
2017-Oct-11 23:00N 32°23' W 090°54'0 0.0
2017-Oct-11 22:30N 32°23' W 090°54'0 0.0
2017-Oct-11 22:00N 32°23' W 090°54'0 0.0
2017-Oct-11 21:30N 32°23' W 090°54'0 0.0
2017-Oct-11 21:00N 32°23' W 090°54'0 0.0
2017-Oct-11 20:30N 32°23' W 090°54'0 0.0
2017-Oct-11 20:00N 32°23' W 090°54'0 0.0
2017-Oct-11 19:30N 32°23' W 090°54'0 0.0
2017-Oct-11 19:00N 32°23' W 090°54'0 0.0
2017-Oct-11 18:30N 32°23' W 090°54'0 0.0
2017-Oct-11 18:00N 32°23' W 090°54'0 0.0
2017-Oct-11 17:30N 32°23' W 090°54'0 0.0
2017-Oct-11 17:00N 32°23' W 090°54'  
2017-Oct-09 02:33N 31°56' W 091°12'0 8.5
2017-Oct-09 02:30N 31°57' W 091°12'5 7.6
2017-Oct-09 01:52N 31°59' W 091°07'3 8.5
2017-Oct-09 01:30N 32°01' W 091°04'5 7.0
2017-Oct-09 00:45N 32°06' W 091°06'2 6.6
2017-Oct-09 00:30N 32°08' W 091°06'4 8.5
2017-Oct-09 00:00N 32°07' W 091°01'5 9.1
2017-Oct-08 23:30N 32°12' W 090°59'5 9.1
2017-Oct-08 23:00N 32°16' W 090°58'5 9.0
2017-Oct-08 22:30N 32°19' W 090°54'2 4.2
2017-Oct-08 22:00N 32°21' W 090°53'0 0.8
2017-Oct-08 21:30N 32°22' W 090°53'0 0.0
2017-Oct-08 21:00N 32°22' W 090°53'0 0.0
2017-Oct-08 20:30N 32°22' W 090°53'0 0.7
2017-Oct-08 20:00N 32°22' W 090°53'2 3.1
2017-Oct-08 19:30N 32°23' W 090°54'0 0.7
2017-Oct-08 19:00N 32°23' W 090°54'0 0.0
2017-Oct-08 18:30N 32°23' W 090°54'0 0.2
2017-Oct-08 18:00N 32°23' W 090°54'0 0.0
2017-Oct-08 17:30N 32°23' W 090°54'0 0.0
2017-Oct-08 17:00N 32°23' W 090°54'0 0.0
2017-Oct-08 16:30N 32°23' W 090°54'0 0.0
2017-Oct-08 16:00N 32°23' W 090°54'0 0.0
2017-Oct-08 15:30N 32°23' W 090°54'0 0.0
2017-Oct-08 15:00N 32°23' W 090°54'0 0.0
2017-Oct-08 14:30N 32°23' W 090°54'0 0.0
2017-Oct-08 14:00N 32°23' W 090°54'0 0.0
2017-Oct-08 13:30N 32°23' W 090°54'0 0.0
2017-Oct-08 13:00N 32°23' W 090°54'0 0.0
2017-Oct-08 12:30N 32°23' W 090°54'0 0.0
2017-Oct-08 12:00N 32°23' W 090°54'0 0.0
2017-Oct-08 11:30N 32°23' W 090°54'0 0.0
2017-Oct-08 11:00N 32°23' W 090°54'0 0.0
2017-Oct-08 10:30N 32°23' W 090°54'0 0.0
2017-Oct-08 10:00N 32°23' W 090°54'0 0.0
2017-Oct-08 09:30N 32°23' W 090°54'0 0.0
2017-Oct-08 09:00N 32°23' W 090°54'0 0.0
2017-Oct-08 08:30N 32°23' W 090°54'0 0.0
2017-Oct-08 08:00N 32°23' W 090°54'0 0.0
2017-Oct-08 07:30N 32°23' W 090°54'0 0.0
2017-Oct-08 07:00N 32°23' W 090°54'0 0.0
2017-Oct-08 06:30N 32°23' W 090°54'0 0.0
2017-Oct-08 06:00N 32°23' W 090°54'0 0.0
2017-Oct-08 05:30N 32°23' W 090°54'0 0.0
2017-Oct-08 05:00N 32°23' W 090°54'0 0.0
2017-Oct-08 04:30N 32°23' W 090°54'0 0.0
2017-Oct-08 04:00N 32°23' W 090°54'0 0.0
2017-Oct-08 03:30N 32°23' W 090°54'0 0.1
2017-Oct-08 03:00N 32°23' W 090°54'0 0.9
2017-Oct-08 02:30N 32°23' W 090°53'1 2.6
2017-Oct-08 02:00N 32°22' W 090°53'1 2.8
2017-Oct-08 01:30N 32°21' W 090°53'1 1.1
2017-Oct-08 01:00N 32°20' W 090°54'0 0.6
2017-Oct-08 00:30N 32°20' W 090°54'2 4.4
2017-Oct-08 00:00N 32°18' W 090°55'2 3.5
2017-Oct-07 23:30N 32°17' W 090°57'2 4.0
2017-Oct-07 23:00N 32°16' W 090°58'2 4.0
2017-Oct-07 22:30N 32°14' W 090°59'2 4.8
2017-Oct-07 22:00N 32°11' W 090°60'2 4.3
2017-Oct-07 21:30N 32°09' W 091°00'2 4.3
2017-Oct-07 21:00N 32°07' W 091°01'4 4.7
2017-Oct-07 20:06N 32°08' W 091°06'1 4.2
2017-Oct-07 19:59N 32°07' W 091°07'23 0.7
2017-Oct-06 10:22N 31°49' W 091°21'4 7.7
2017-Oct-06 09:53N 31°51' W 091°18'3 8.7
2017-Oct-06 09:30N 31°52' W 091°14'4 7.7
2017-Oct-06 08:56N 31°56' W 091°12'3 7.1
2017-Oct-06 08:30N 31°59' W 091°10'4 8.1
2017-Oct-06 08:00N 31°60' W 091°06'5 9.4
2017-Oct-06 07:30N 32°04' W 091°03'4 8.8
2017-Oct-06 07:00N 32°07' W 091°07'2 4.5
2017-Oct-06 06:30N 32°08' W 091°04'3 6.0
2017-Oct-06 06:00N 32°08' W 091°01'4 8.7
2017-Oct-06 05:30N 32°12' W 090°59'4 8.6
2017-Oct-06 05:00N 32°16' W 090°58'4 8.8
2017-Oct-06 04:30N 32°19' W 090°54'3 5.1
2017-Oct-06 04:00N 32°22' W 090°53'0 0.0
2017-Oct-06 03:30N 32°22' W 090°53'1 1.6
2017-Oct-06 03:00N 32°21' W 090°53'1 1.2
2017-Oct-06 02:30N 32°20' W 090°54'0 0.0
2017-Oct-06 02:00N 32°20' W 090°54'0 0.0
2017-Oct-06 01:30N 32°20' W 090°54'0 0.0
2017-Oct-06 01:00N 32°20' W 090°54'0 0.0
2017-Oct-06 00:30N 32°20' W 090°54'0 0.0
2017-Oct-06 00:00N 32°20' W 090°54'0 0.0
2017-Oct-05 23:30N 32°20' W 090°54'1 2.7
2017-Oct-05 23:00N 32°22' W 090°53'0 0.1
2017-Oct-05 22:30N 32°22' W 090°53'1 2.9
2017-Oct-05 22:00N 32°23' W 090°53'0 0.1
2017-Oct-05 21:30N 32°23' W 090°53'0 0.0
2017-Oct-05 21:00N 32°23' W 090°53'0 0.0
2017-Oct-05 20:30N 32°23' W 090°53'0 0.0
2017-Oct-05 20:00N 32°23' W 090°53'0 0.0
2017-Oct-05 19:30N 32°23' W 090°53'0 0.0
2017-Oct-05 19:00N 32°23' W 090°53'0 0.3
2017-Oct-05 18:30N 32°23' W 090°53'1 1.6
2017-Oct-05 18:00N 32°23' W 090°54'0 0.1
2017-Oct-05 17:30N 32°23' W 090°54'0 0.0
2017-Oct-05 17:00N 32°23' W 090°54'3 1.9
2017-Oct-05 15:30N 32°20' W 090°54'1 2.4
2017-Oct-05 15:00N 32°19' W 090°54'3 5.5
2017-Oct-05 14:30N 32°17' W 090°56'2 4.5
2017-Oct-05 14:00N 32°16' W 090°58'2 3.9
2017-Oct-05 13:30N 32°14' W 090°59'1 1.7
2017-Oct-05 13:00N 32°13' W 090°59'1 1.4
2017-Oct-05 12:30N 32°12' W 090°59'2 4.2
2017-Oct-05 12:00N 32°10' W 091°00'2 3.9
2017-Oct-05 11:30N 32°08' W 091°00'2 3.7
2017-Oct-05 10:53N 32°07' W 091°03'3 4.4
2017-Oct-05 10:12N 32°08' W 091°06'1 4.0
2017-Oct-05 10:00N 32°07' W 091°07'5 1.2
2017-Oct-05 06:02N 32°03' W 091°03'0 4.7
2017-Oct-05 06:00N 32°03' W 091°03'3 5.6
2017-Oct-05 05:30N 32°01' W 091°05'  

Dump ship's entire track history